Time;durP1;ratioP1;P1;durP2;ratioP2;P2;SDS_P1;SDS_P2;PMS_P1;PMS_P2;Temp;Humidity;BMP_temperature;BMP_pressure;BME280_temperature;BME280_humidity;BME280_pressure;Samples;Min_cycle;Max_cycle;Signal;HPM_P1;HPM_P2
2022/02/17 00:00:06;;;;;;;0.10;0.10;;;;;;;;;;4957283;29;20047;-68
2022/02/17 00:02:33;;;;;;;0.47;0.47;;;;;;;;;;4957155;29;20106;-68
2022/02/17 00:05:00;;;;;;;0.93;0.70;;;;;;;;;;4957224;28;20055;-68
2022/02/17 00:07:26;;;;;;;1.27;0.40;;;;;;;;;;4956974;29;20094;-68
2022/02/17 00:09:53;;;;;;;0.10;0.10;;;;;;;;;;4957416;29;20345;-68
2022/02/17 00:12:19;;;;;;;0.30;0.20;;;;;;;;;;4956888;29;20047;-68
2022/02/17 00:14:46;;;;;;;0.40;0.40;;;;;;;;;;4957306;28;20047;-68
2022/02/17 00:17:13;;;;;;;0.20;0.10;;;;;;;;;;4957033;29;20102;-68
2022/02/17 00:19:39;;;;;;;0.10;0.10;;;;;;;;;;4957134;29;20051;-68
2022/02/17 00:22:06;;;;;;;0.30;0.10;;;;;;;;;;4956967;29;20055;-69
2022/02/17 00:24:33;;;;;;;2.42;0.45;;;;;;;;;;4956915;28;20106;-67
2022/02/17 00:27:02;;;;;;;0.20;0.10;;;;;;;;;;4956927;29;20110;-68
2022/02/17 00:29:29;;;;;;;0.20;0.10;;;;;;;;;;4956827;29;20055;-68
2022/02/17 00:31:55;;;;;;;0.03;0.00;;;;;;;;;;4956937;29;20117;-67
2022/02/17 00:34:22;;;;;;;0.10;0.10;;;;;;;;;;4956650;28;20102;-68
2022/02/17 00:36:49;;;;;;;0.10;0.03;;;;;;;;;;4956679;29;20571;-67
2022/02/17 00:39:16;;;;;;;0.30;0.17;;;;;;;;;;4956689;29;20059;-68
2022/02/17 00:41:42;;;;;;;0.13;0.10;;;;;;;;;;4956603;29;20478;-68
2022/02/17 00:44:09;;;;;;;0.17;0.00;;;;;;;;;;4956438;28;20426;-68
2022/02/17 00:46:35;;;;;;;0.40;0.10;;;;;;;;;;4956549;29;20051;-68
2022/02/17 00:49:02;;;;;;;0.50;0.10;;;;;;;;;;4956438;29;20499;-70
2022/02/17 00:51:29;;;;;;;0.00;0.00;;;;;;;;;;4956519;29;20047;-68
2022/02/17 00:53:55;;;;;;;0.57;0.20;;;;;;;;;;4956544;29;20047;-68
2022/02/17 00:56:22;;;;;;;0.00;0.00;;;;;;;;;;4956209;28;20067;-68
2022/02/17 00:58:48;;;;;;;0.00;0.00;;;;;;;;;;4956248;29;20051;-69
2022/02/17 01:01:15;;;;;;;0.00;0.00;;;;;;;;;;4956204;29;20055;-69
2022/02/17 01:03:41;;;;;;;0.47;0.08;;;;;;;;;;4956141;29;20105;-67
2022/02/17 01:06:08;;;;;;;0.10;0.10;;;;;;;;;;4956126;28;20081;-68
2022/02/17 01:08:35;;;;;;;0.10;0.03;;;;;;;;;;4956160;29;20055;-68
2022/02/17 01:11:01;;;;;;;0.43;0.08;;;;;;;;;;4954792;28;20098;-68
2022/02/17 01:13:28;;;;;;;0.13;0.03;;;;;;;;;;4955856;29;20058;-68
2022/02/17 01:15:55;;;;;;;0.10;0.10;;;;;;;;;;4956017;28;20051;-68
2022/02/17 01:18:21;;;;;;;0.10;0.03;;;;;;;;;;4955750;29;20470;-68
2022/02/17 01:20:49;;;;;;;0.30;0.03;;;;;;;;;;4937081;29;20484;-68
2022/02/17 01:23:15;;;;;;;0.10;0.10;;;;;;;;;;4936700;29;20052;-69
2022/02/17 01:25:42;;;;;;;0.00;0.00;;;;;;;;;;4936670;29;20499;-68
2022/02/17 01:28:10;;;;;;;0.10;0.10;;;;;;;;;;4944756;29;20530;-67
2022/02/17 01:30:36;;;;;;;0.32;0.20;;;;;;;;;;4955552;29;20051;-68
2022/02/17 01:33:03;;;;;;;0.85;0.10;;;;;;;;;;4955746;29;20204;-67
2022/02/17 01:35:30;;;;;;;0.10;0.10;;;;;;;;;;4955659;28;20055;-68
2022/02/17 01:37:57;;;;;;;0.08;0.08;;;;;;;;;;4955677;29;20051;-67
2022/02/17 01:40:23;;;;;;;0.70;0.10;;;;;;;;;;4955538;29;20110;-67
2022/02/17 01:42:50;;;;;;;0.20;0.10;;;;;;;;;;4955561;29;20102;-68
2022/02/17 01:45:16;;;;;;;0.17;0.00;;;;;;;;;;4955496;28;20554;-67
2022/02/17 01:47:47;;;;;;;0.20;0.20;;;;;;;;;;4954725;29;20491;-67
2022/02/17 01:50:15;;;;;;;0.13;0.10;;;;;;;;;;4955492;29;20059;-67
2022/02/17 01:52:42;;;;;;;0.10;0.10;;;;;;;;;;4955288;29;20752;-68
2022/02/17 01:55:09;;;;;;;0.10;0.10;;;;;;;;;;4955292;28;20130;-68
2022/02/17 01:57:35;;;;;;;0.43;0.17;;;;;;;;;;4954342;29;20102;-68
2022/02/17 02:00:04;;;;;;;0.60;0.20;;;;;;;;;;4950174;29;20102;-68
2022/02/17 02:02:31;;;;;;;0.38;0.20;;;;;;;;;;4955297;29;20126;-67
2022/02/17 02:04:58;;;;;;;0.22;0.10;;;;;;;;;;4955449;28;20105;-67
2022/02/17 02:07:24;;;;;;;0.00;0.00;;;;;;;;;;4955699;29;20193;-68
2022/02/17 02:09:53;;;;;;;0.10;0.10;;;;;;;;;;4955175;29;20058;-68
2022/02/17 02:12:20;;;;;;;0.25;0.10;;;;;;;;;;4953745;29;20054;-68
2022/02/17 02:14:54;;;;;;;0.10;0.00;;;;;;;;;;4955214;28;20110;-67
2022/02/17 02:17:24;;;;;;;0.00;0.00;;;;;;;;;;4954843;29;20047;-67
2022/02/17 02:19:55;;;;;;;0.00;0.00;;;;;;;;;;4955103;29;20110;-69
2022/02/17 02:22:21;;;;;;;0.00;0.00;;;;;;;;;;4954444;28;20055;-67
2022/02/17 02:24:48;;;;;;;0.10;0.10;;;;;;;;;;4938375;29;20055;-67
2022/02/17 02:27:15;;;;;;;0.73;0.20;;;;;;;;;;4948200;29;20048;-69
2022/02/17 02:29:43;;;;;;;0.57;0.10;;;;;;;;;;4950793;29;20086;-67
2022/02/17 02:32:10;;;;;;;0.40;0.20;;;;;;;;;;4954511;29;20055;-67
2022/02/17 02:34:36;;;;;;;0.25;0.10;;;;;;;;;;4954551;28;20483;-68
2022/02/17 02:37:04;;;;;;;0.20;0.10;;;;;;;;;;4954401;29;20047;-67
2022/02/17 02:39:32;;;;;;;0.13;0.10;;;;;;;;;;4954476;29;20482;-67
2022/02/17 02:41:59;;;;;;;0.73;0.10;;;;;;;;;;4954413;29;20565;-67
2022/02/17 02:44:26;;;;;;;0.43;0.10;;;;;;;;;;4948820;29;20122;-68
2022/02/17 02:46:53;;;;;;;0.00;0.00;;;;;;;;;;4944250;29;20044;-67
2022/02/17 02:49:19;;;;;;;0.22;0.10;;;;;;;;;;4935325;29;20051;-67
2022/02/17 02:51:46;;;;;;;0.05;0.05;;;;;;;;;;4939132;29;20490;-67
2022/02/17 02:54:13;;;;;;;0.13;0.13;;;;;;;;;;4950975;28;20055;-66
2022/02/17 02:56:39;;;;;;;1.38;0.30;;;;;;;;;;4953954;29;20043;-67
2022/02/17 02:59:06;;;;;;;0.35;0.10;;;;;;;;;;4951363;29;20400;-68
2022/02/17 03:01:33;;;;;;;0.63;0.10;;;;;;;;;;4950856;29;20055;-68
2022/02/17 03:03:59;;;;;;;0.10;0.10;;;;;;;;;;4953398;29;20051;-67
2022/02/17 03:06:29;;;;;;;0.80;0.08;;;;;;;;;;4953860;28;20047;-68
2022/02/17 03:08:56;;;;;;;0.00;0.00;;;;;;;;;;4954102;29;20082;-69
2022/02/17 03:11:23;;;;;;;0.00;0.00;;;;;;;;;;4952686;29;20570;-67
2022/02/17 03:13:50;;;;;;;1.00;0.00;;;;;;;;;;4954016;29;20463;-67
2022/02/17 03:16:16;;;;;;;0.80;0.00;;;;;;;;;;4953765;28;20055;-68
2022/02/17 03:18:43;;;;;;;0.00;0.00;;;;;;;;;;4954242;29;20051;-67
2022/02/17 03:21:09;;;;;;;0.17;0.15;;;;;;;;;;4953979;29;20082;-67
2022/02/17 03:23:36;;;;;;;0.00;0.00;;;;;;;;;;4953473;29;20482;-69
2022/02/17 03:26:03;;;;;;;0.10;0.10;;;;;;;;;;4953650;28;20051;-67
2022/02/17 03:28:30;;;;;;;0.05;0.00;;;;;;;;;;4953664;29;20055;-67
2022/02/17 03:30:57;;;;;;;0.30;0.20;;;;;;;;;;4955114;29;20055;-69
2022/02/17 03:33:23;;;;;;;0.30;0.10;;;;;;;;;;4952801;29;20043;-69
2022/02/17 03:35:50;;;;;;;0.00;0.00;;;;;;;;;;4953620;28;20138;-69
2022/02/17 03:38:16;;;;;;;0.35;0.00;;;;;;;;;;4953435;29;20076;-68
2022/02/17 03:40:43;;;;;;;0.10;0.05;;;;;;;;;;4953623;29;20058;-69
2022/02/17 03:43:09;;;;;;;0.00;0.00;;;;;;;;;;4953635;29;20102;-69
2022/02/17 03:45:36;;;;;;;0.00;0.00;;;;;;;;;;4953551;28;20511;-69
2022/02/17 03:48:03;;;;;;;0.10;0.00;;;;;;;;;;4953504;29;20047;-69
2022/02/17 03:50:29;;;;;;;0.00;0.00;;;;;;;;;;4953584;29;20102;-69
2022/02/17 03:52:56;;;;;;;0.32;0.00;;;;;;;;;;4953322;29;20491;-71
2022/02/17 03:55:23;;;;;;;0.00;0.00;;;;;;;;;;4953486;28;20047;-69
2022/02/17 03:57:49;;;;;;;0.10;0.00;;;;;;;;;;4953544;29;20561;-69
2022/02/17 04:00:16;;;;;;;0.00;0.00;;;;;;;;;;4953606;29;20102;-69
2022/02/17 04:02:43;;;;;;;0.00;0.00;;;;;;;;;;4953440;29;20566;-69
2022/02/17 04:05:09;;;;;;;0.00;0.00;;;;;;;;;;4953510;28;20099;-69
2022/02/17 04:07:37;;;;;;;0.00;0.00;;;;;;;;;;4953298;29;20406;-70
2022/02/17 04:10:03;;;;;;;0.00;0.00;;;;;;;;;;4953401;29;20505;-68
2022/02/17 04:12:30;;;;;;;0.00;0.00;;;;;;;;;;4953179;29;20055;-69
2022/02/17 04:14:59;;;;;;;0.00;0.00;;;;;;;;;;4953276;28;20410;-69
2022/02/17 04:17:26;;;;;;;0.13;0.00;;;;;;;;;;4953230;29;20046;-69
2022/02/17 04:19:53;;;;;;;0.00;0.00;;;;;;;;;;4953494;29;20071;-70
2022/02/17 04:22:19;;;;;;;0.10;0.10;;;;;;;;;;4953141;29;20553;-70
2022/02/17 04:24:46;;;;;;;0.25;0.00;;;;;;;;;;4953255;28;20084;-69
2022/02/17 04:27:12;;;;;;;0.15;0.00;;;;;;;;;;4953169;29;20047;-69
2022/02/17 04:29:39;;;;;;;0.00;0.00;;;;;;;;;;4952989;29;20055;-70
2022/02/17 04:32:07;;;;;;;0.00;0.00;;;;;;;;;;4953154;29;20103;-69
2022/02/17 04:34:33;;;;;;;0.38;0.10;;;;;;;;;;4953294;28;20063;-69
2022/02/17 04:37:00;;;;;;;0.10;0.00;;;;;;;;;;4953047;29;20051;-69
2022/02/17 04:39:26;;;;;;;0.00;0.00;;;;;;;;;;4952965;29;20098;-70
2022/02/17 04:44:38;;;;;;;0.20;0.10;;;;;;;;;;4954043;28;20303;-70
2022/02/17 04:47:04;;;;;;;0.10;0.03;;;;;;;;;;4956903;29;20079;-70
2022/02/17 04:49:33;;;;;;;0.00;0.00;;;;;;;;;;4962736;29;20077;-69
2022/02/17 04:52:00;;;;;;;0.10;0.10;;;;;;;;;;4969577;29;20055;-70
2022/02/17 04:54:27;;;;;;;0.85;0.10;;;;;;;;;;4965199;28;20059;-69
2022/02/17 04:56:54;;;;;;;0.15;0.10;;;;;;;;;;4956466;29;20051;-70
2022/02/17 04:59:21;;;;;;;0.20;0.10;;;;;;;;;;4956455;29;20051;-70
2022/02/17 05:01:47;;;;;;;0.03;0.00;;;;;;;;;;4956819;29;20059;-70
2022/02/17 05:04:20;;;;;;;0.15;0.10;;;;;;;;;;4956352;28;20577;-70
2022/02/17 05:06:47;;;;;;;0.20;0.08;;;;;;;;;;4956278;29;20514;-69
2022/02/17 05:09:13;;;;;;;0.10;0.05;;;;;;;;;;4956640;29;20051;-69
2022/02/17 05:11:40;;;;;;;0.08;0.00;;;;;;;;;;4956273;29;20059;-70
2022/02/17 05:14:07;;;;;;;0.00;0.00;;;;;;;;;;4956161;28;20051;-69
2022/02/17 05:16:33;;;;;;;0.00;0.00;;;;;;;;;;4939226;29;20499;-70
2022/02/17 05:19:00;;;;;;;0.10;0.08;;;;;;;;;;4939140;29;20506;-70
2022/02/17 05:21:26;;;;;;;0.00;0.00;;;;;;;;;;4956201;29;20102;-70
2022/02/17 05:23:58;;;;;;;0.20;0.03;;;;;;;;;;4955798;29;20061;-70
2022/02/17 05:26:25;;;;;;;0.35;0.20;;;;;;;;;;4956050;28;20047;-69
2022/02/17 05:28:51;;;;;;;0.03;0.03;;;;;;;;;;4956437;29;20051;-70
2022/02/17 05:31:18;;;;;;;0.10;0.10;;;;;;;;;;4956205;29;20098;-71
2022/02/17 05:33:45;;;;;;;0.00;0.00;;;;;;;;;;4955971;29;20063;-70
2022/02/17 05:36:11;;;;;;;0.22;0.08;;;;;;;;;;4955755;28;20110;-69
2022/02/17 05:38:38;;;;;;;0.38;0.17;;;;;;;;;;4955770;29;20107;-69
2022/02/17 05:41:04;;;;;;;0.30;0.30;;;;;;;;;;4955905;29;20047;-70
2022/02/17 05:43:32;;;;;;;0.60;0.17;;;;;;;;;;4955478;29;20095;-70
2022/02/17 05:45:58;;;;;;;1.80;0.40;;;;;;;;;;4955842;28;20114;-70
2022/02/17 05:48:25;;;;;;;1.30;0.28;;;;;;;;;;4954466;29;20043;-70
2022/02/17 05:50:51;;;;;;;1.88;0.40;;;;;;;;;;4955700;29;20217;-71
2022/02/17 05:53:18;;;;;;;1.05;0.43;;;;;;;;;;4955365;29;20544;-71
2022/02/17 05:55:45;;;;;;;1.60;0.50;;;;;;;;;;4955053;28;20106;-71
2022/02/17 05:58:12;;;;;;;4.70;0.80;;;;;;;;;;4955358;29;20498;-71
2022/02/17 06:00:40;;;;;;;5.13;0.82;;;;;;;;;;4955385;29;20051;-71
2022/02/17 06:03:07;;;;;;;4.63;0.82;;;;;;;;;;4954057;29;20055;-71
2022/02/17 06:05:33;;;;;;;8.55;1.00;;;;;;;;;;4955499;28;20498;-71
2022/02/17 06:08:00;;;;;;;9.90;1.10;;;;;;;;;;4955387;29;20104;-71
2022/02/17 06:10:27;;;;;;;3.78;0.98;;;;;;;;;;4955586;29;20458;-71
2022/02/17 06:12:53;;;;;;;6.45;1.20;;;;;;;;;;4955517;29;20051;-71
2022/02/17 06:15:20;;;;;;;3.00;0.85;;;;;;;;;;4955135;28;20482;-71
2022/02/17 06:17:47;;;;;;;6.95;1.50;;;;;;;;;;4955082;29;20121;-72
2022/02/17 06:20:13;;;;;;;7.25;1.10;;;;;;;;;;4955095;29;20502;-71
2022/02/17 06:22:45;;;;;;;4.25;1.25;;;;;;;;;;4953687;29;20058;-71
2022/02/17 06:25:11;;;;;;;3.72;0.85;;;;;;;;;;4955047;28;20051;-71
2022/02/17 06:27:38;;;;;;;7.40;1.08;;;;;;;;;;4954677;29;20046;-71
2022/02/17 06:30:05;;;;;;;4.35;1.00;;;;;;;;;;4955007;29;20114;-71
2022/02/17 06:32:32;;;;;;;5.20;1.83;;;;;;;;;;4953394;29;20083;-71
2022/02/17 06:34:58;;;;;;;3.92;1.63;;;;;;;;;;4955511;28;20466;-70
2022/02/17 06:37:25;;;;;;;3.50;1.52;;;;;;;;;;4955280;29;20052;-69
2022/02/17 06:39:52;;;;;;;3.88;1.00;;;;;;;;;;4955000;29;20051;-71
2022/02/17 06:42:18;;;;;;;4.03;0.90;;;;;;;;;;4954589;29;20051;-70
2022/02/17 06:44:45;;;;;;;7.13;1.25;;;;;;;;;;4954487;28;20490;-70
2022/02/17 06:47:12;;;;;;;7.18;1.42;;;;;;;;;;4954867;29;20047;-70
2022/02/17 06:49:38;;;;;;;6.55;1.30;;;;;;;;;;4954333;29;20062;-71
2022/02/17 06:52:06;;;;;;;7.35;1.73;;;;;;;;;;4954452;29;20109;-71
2022/02/17 06:54:32;;;;;;;5.40;1.25;;;;;;;;;;4937339;28;20055;-70
2022/02/17 06:56:59;;;;;;;8.10;1.65;;;;;;;;;;4954504;29;20055;-71
2022/02/17 06:59:25;;;;;;;6.22;1.70;;;;;;;;;;4954121;29;20043;-70
2022/02/17 07:01:52;;;;;;;10.43;2.38;;;;;;;;;;4954667;29;20482;-70
2022/02/17 07:04:19;;;;;;;4.57;1.52;;;;;;;;;;4950686;28;20047;-68
2022/02/17 07:06:47;;;;;;;5.05;1.80;;;;;;;;;;4952074;29;20051;-68
2022/02/17 07:09:13;;;;;;;5.13;1.50;;;;;;;;;;4951112;28;20054;-67
2022/02/17 07:11:40;;;;;;;16.13;3.35;;;;;;;;;;4952148;29;20059;-68
2022/02/17 07:14:09;;;;;;;7.65;2.53;;;;;;;;;;4951957;28;20047;-67
2022/02/17 07:16:35;;;;;;;13.43;2.88;;;;;;;;;;4951361;29;20430;-68
2022/02/17 07:19:02;;;;;;;9.35;3.22;;;;;;;;;;4951915;29;20055;-67
2022/02/17 07:21:29;;;;;;;8.32;2.75;;;;;;;;;;4951939;29;20540;-68
2022/02/17 07:23:56;;;;;;;9.68;2.15;;;;;;;;;;4951696;29;20354;-67
2022/02/17 07:26:22;;;;;;;7.85;1.63;;;;;;;;;;4951518;28;20463;-68
2022/02/17 07:28:49;;;;;;;9.98;1.67;;;;;;;;;;4951859;29;20538;-68
2022/02/17 07:31:15;;;;;;;7.93;1.83;;;;;;;;;;4951319;29;20470;-67
2022/02/17 07:33:42;;;;;;;8.52;2.42;;;;;;;;;;4951715;29;20055;-68
2022/02/17 07:36:11;;;;;;;10.98;1.33;;;;;;;;;;4951556;28;20059;-68
2022/02/17 07:38:48;;;;;;;7.13;1.48;;;;;;;;;;4951880;29;20055;-68
2022/02/17 07:41:14;;;;;;;9.38;2.45;;;;;;;;;;4951711;29;20058;-68
2022/02/17 07:43:41;;;;;;;8.25;1.80;;;;;;;;;;4950937;29;20059;-68
2022/02/17 07:46:08;;;;;;;7.47;1.25;;;;;;;;;;4951433;28;20059;-68
2022/02/17 07:48:35;;;;;;;5.28;1.60;;;;;;;;;;4951744;29;20110;-68
2022/02/17 07:51:02;;;;;;;6.78;1.88;;;;;;;;;;4949953;29;20055;-68
2022/02/17 07:53:29;;;;;;;8.52;1.70;;;;;;;;;;4951306;29;20102;-67
2022/02/17 07:55:55;;;;;;;8.02;1.83;;;;;;;;;;4946604;28;20060;-68
2022/02/17 07:58:24;;;;;;;9.18;1.50;;;;;;;;;;4932844;29;20396;-68
2022/02/17 08:00:51;;;;;;;10.13;1.60;;;;;;;;;;4932562;29;20107;-68
2022/02/17 08:03:17;;;;;;;4.55;1.30;;;;;;;;;;4932293;29;20126;-67
2022/02/17 08:05:45;;;;;;;6.18;1.58;;;;;;;;;;4932479;29;20055;-67
2022/02/17 08:08:12;;;;;;;8.82;2.13;;;;;;;;;;4932386;29;20099;-68
2022/02/17 08:10:39;;;;;;;6.05;1.50;;;;;;;;;;4932233;29;20107;-68
2022/02/17 08:13:06;;;;;;;7.22;1.52;;;;;;;;;;4932481;29;20083;-68
2022/02/17 08:15:33;;;;;;;8.52;1.40;;;;;;;;;;4932443;29;20055;-68
2022/02/17 08:17:59;;;;;;;9.13;2.20;;;;;;;;;;4926240;28;20067;-64
2022/02/17 08:20:26;;;;;;;7.03;1.10;;;;;;;;;;4951954;28;20110;-66
2022/02/17 08:22:56;;;;;;;10.68;2.22;;;;;;;;;;4953571;29;20047;-67
2022/02/17 08:25:23;;;;;;;9.45;2.13;;;;;;;;;;4953669;28;20502;-69
2022/02/17 08:27:50;;;;;;;6.70;1.55;;;;;;;;;;4954426;29;20055;-67
2022/02/17 08:30:18;;;;;;;6.47;1.30;;;;;;;;;;4951926;29;20117;-69
2022/02/17 08:32:45;;;;;;;7.18;1.35;;;;;;;;;;4953181;29;20051;-69
2022/02/17 08:35:12;;;;;;;7.63;1.85;;;;;;;;;;4953750;28;20113;-68
2022/02/17 08:37:39;;;;;;;8.75;1.73;;;;;;;;;;4936828;29;20055;-68
2022/02/17 08:40:08;;;;;;;5.80;1.08;;;;;;;;;;4954148;29;20043;-67
2022/02/17 08:42:35;;;;;;;8.90;1.50;;;;;;;;;;4953218;29;20066;-69
2022/02/17 08:45:02;;;;;;;6.60;1.52;;;;;;;;;;4928110;28;20482;-66
2022/02/17 08:47:35;;;;;;;12.48;2.40;;;;;;;;;;4950178;29;20059;-74
2022/02/17 08:50:06;;;;;;;8.10;1.80;;;;;;;;;;4918155;29;20067;-72
2022/02/17 08:52:41;;;;;;;7.28;1.80;;;;;;;;;;4937776;29;20051;-72
2022/02/17 08:55:08;;;;;;;15.05;2.92;;;;;;;;;;4953022;28;20087;-73
2022/02/17 08:57:34;;;;;;;12.07;2.35;;;;;;;;;;4952815;29;20630;-73
2022/02/17 09:00:02;;;;;;;8.95;1.83;;;;;;;;;;4952516;29;20141;-74
2022/02/17 09:02:37;;;;;;;9.75;1.90;;;;;;;;;;4936285;29;20063;-74
2022/02/17 09:05:09;;;;;;;9.05;2.42;;;;;;;;;;4952215;28;20051;-74
2022/02/17 09:07:49;;;;;;;9.07;1.90;;;;;;;;;;4932278;29;20062;-73
2022/02/17 09:10:16;;;;;;;12.77;1.98;;;;;;;;;;4953858;29;20058;-73
2022/02/17 09:12:43;;;;;;;11.13;2.28;;;;;;;;;;4936706;29;20072;-74
2022/02/17 09:15:13;;;;;;;11.95;2.50;;;;;;;;;;4952449;29;20051;-73
2022/02/17 09:17:46;;;;;;;14.32;2.38;;;;;;;;;;4929689;29;20462;-74
2022/02/17 09:20:15;;;;;;;14.45;2.08;;;;;;;;;;4953794;29;20412;-74
2022/02/17 09:22:47;;;;;;;12.07;2.65;;;;;;;;;;4951160;29;20047;-74
2022/02/17 09:25:15;;;;;;;8.05;2.35;;;;;;;;;;4932650;29;20102;-74
2022/02/17 09:27:41;;;;;;;9.75;2.67;;;;;;;;;;4951780;28;20059;-74
2022/02/17 09:30:09;;;;;;;10.60;2.38;;;;;;;;;;4935478;28;20047;-73
2022/02/17 09:32:35;;;;;;;9.75;2.53;;;;;;;;;;4923198;29;20675;-71
2022/02/17 09:35:02;;;;;;;13.82;2.88;;;;;;;;;;4950582;28;20047;-71
2022/02/17 09:37:29;;;;;;;13.90;2.58;;;;;;;;;;4951156;29;20047;-70
2022/02/17 09:39:56;;;;;;;9.32;1.98;;;;;;;;;;4926401;28;20058;-69
2022/02/17 09:42:22;;;;;;;15.80;4.60;;;;;;;;;;4952167;29;20091;-68
2022/02/17 09:44:49;;;;;;;18.45;2.95;;;;;;;;;;4935514;29;20051;-71
2022/02/17 09:47:16;;;;;;;15.85;3.38;;;;;;;;;;4935087;29;20095;-69
2022/02/17 09:49:43;;;;;;;15.27;2.92;;;;;;;;;;4952470;29;20077;-70
2022/02/17 09:52:13;;;;;;;12.80;2.72;;;;;;;;;;4951759;29;20098;-69
2022/02/17 09:54:40;;;;;;;14.75;3.03;;;;;;;;;;4951618;28;20541;-69
2022/02/17 09:57:07;;;;;;;9.50;2.47;;;;;;;;;;4953240;29;20470;-70
2022/02/17 09:59:33;;;;;;;13.77;2.70;;;;;;;;;;4936602;29;20055;-69
2022/02/17 10:02:04;;;;;;;16.05;2.97;;;;;;;;;;4953304;29;20059;-69
2022/02/17 10:04:32;;;;;;;11.75;2.42;;;;;;;;;;4906944;29;20087;-73
2022/02/17 10:07:01;;;;;;;14.13;3.45;;;;;;;;;;4917731;29;20051;-71
2022/02/17 10:09:41;;;;;;;21.48;3.22;;;;;;;;;;4934490;29;20052;-72
2022/02/17 10:12:10;;;;;;;15.15;2.53;;;;;;;;;;4934711;29;20048;-71
2022/02/17 10:14:38;;;;;;;16.65;3.67;;;;;;;;;;4933824;29;20058;-68
2022/02/17 10:17:07;;;;;;;15.48;2.88;;;;;;;;;;4933834;29;20051;-67
2022/02/17 10:19:40;;;;;;;13.98;2.60;;;;;;;;;;4929453;28;20047;-68
2022/02/17 10:22:13;;;;;;;13.70;3.40;;;;;;;;;;4953326;29;20043;-67
2022/02/17 10:24:44;;;;;;;11.68;3.33;;;;;;;;;;4953105;28;21073;-69
2022/02/17 10:27:12;;;;;;;8.73;2.45;;;;;;;;;;4952968;28;20047;-69
2022/02/17 10:29:40;;;;;;;14.05;3.17;;;;;;;;;;4949844;29;20058;-76
2022/02/17 10:32:12;;;;;;;20.30;3.05;;;;;;;;;;4945293;29;20053;-71
2022/02/17 10:34:41;;;;;;;15.93;2.95;;;;;;;;;;4935759;29;20137;-73
2022/02/17 10:37:10;;;;;;;20.98;3.90;;;;;;;;;;4950353;29;20047;-69
2022/02/17 10:39:42;;;;;;;16.98;2.55;;;;;;;;;;4952690;29;20073;-72
2022/02/17 10:42:15;;;;;;;12.65;2.65;;;;;;;;;;4956828;28;20043;-74
2022/02/17 10:44:45;;;;;;;14.38;3.00;;;;;;;;;;4956183;29;20055;-70
2022/02/17 10:47:11;;;;;;;15.95;3.10;;;;;;;;;;4962875;29;20109;-72
2022/02/17 10:49:46;;;;;;;17.58;3.47;;;;;;;;;;4968501;29;20039;-73
2022/02/17 10:52:26;;;;;;;16.15;3.60;;;;;;;;;;4951764;29;20047;-72
2022/02/17 10:55:20;;;;;;;10.80;2.45;;;;;;;;;;4970276;28;20107;-72
2022/02/17 10:57:47;;;;;;;;;;;;;;;;;;4967838;29;20082;-69
2022/02/17 11:00:15;;;;;;;10.40;2.47;;;;;;;;;;4963115;29;19977;-70
2022/02/17 11:02:43;;;;;;;9.18;1.75;;;;;;;;;;4920486;29;20420;-71
2022/02/17 11:05:11;;;;;;;11.32;2.30;;;;;;;;;;4960769;28;20047;-72
2022/02/17 11:07:41;;;;;;;8.07;2.15;;;;;;;;;;4962832;29;20051;-71
2022/02/17 11:10:09;;;;;;;8.63;1.92;;;;;;;;;;4963478;29;20047;-70
2022/02/17 11:12:39;;;;;;;11.00;1.55;;;;;;;;;;4960778;29;20051;-69
2022/02/17 11:15:07;;;;;;;9.07;2.10;;;;;;;;;;4957405;28;20043;-70
2022/02/17 11:17:36;;;;;;;9.50;2.50;;;;;;;;;;4952520;29;20114;-70
2022/02/17 11:20:06;;;;;;;13.77;2.10;;;;;;;;;;4952342;29;20043;-68
2022/02/17 11:22:34;;;;;;;5.70;1.52;;;;;;;;;;4953922;29;20514;-69
2022/02/17 11:25:00;;;;;;;10.23;1.88;;;;;;;;;;4936022;29;20284;-70
2022/02/17 11:27:28;;;;;;;10.75;2.00;;;;;;;;;;4951071;29;20043;-68
2022/02/17 11:29:55;;;;;;;26.70;3.60;;;;;;;;;;4933257;29;20051;-70
2022/02/17 11:32:23;;;;;;;8.13;1.73;;;;;;;;;;4949745;29;20425;-69
2022/02/17 11:34:55;;;;;;;10.95;2.13;;;;;;;;;;4950573;28;20058;-68
2022/02/17 11:37:30;;;;;;;14.95;2.92;;;;;;;;;;4947439;29;20089;-69
2022/02/17 11:40:07;;;;;;;11.90;3.45;;;;;;;;;;4950524;29;20098;-69
2022/02/17 11:42:38;;;;;;;10.38;2.15;;;;;;;;;;4949621;29;20098;-69
2022/02/17 11:45:11;;;;;;;7.55;1.60;;;;;;;;;;4946912;28;20442;-70
2022/02/17 11:47:49;;;;;;;8.43;1.90;;;;;;;;;;4950905;29;20047;-69
2022/02/17 11:50:42;;;;;;;13.50;2.13;;;;;;;;;;4950039;29;20051;-69
2022/02/17 11:53:32;;;;;;;8.98;2.08;;;;;;;;;;4945039;29;20498;-66
2022/02/17 11:56:14;;;;;;;7.70;2.53;;;;;;;;;;4955577;28;20047;-67
2022/02/17 11:58:40;;;;;;;14.10;2.55;;;;;;;;;;4955615;29;20109;-67
2022/02/17 12:01:24;;;;;;;14.23;2.28;;;;;;;;;;4956602;28;20062;-68
2022/02/17 12:04:18;;;;;;;9.10;2.22;;;;;;;;;;4957820;28;20061;-69
2022/02/17 12:07:04;;;;;;;7.32;1.90;;;;;;;;;;4958402;29;20404;-68
2022/02/17 12:09:44;;;;;;;7.80;2.13;;;;;;;;;;4958219;28;20055;-71
2022/02/17 12:12:30;;;;;;;7.05;1.85;;;;;;;;;;4930004;29;20078;-71
2022/02/17 12:14:59;;;;;;;6.80;2.25;;;;;;;;;;4956803;28;20043;-70
2022/02/17 12:17:39;;;;;;;6.95;2.05;;;;;;;;;;4921055;29;20287;-72
2022/02/17 12:20:18;;;;;;;7.05;1.90;;;;;;;;;;4948609;28;20090;-67
2022/02/17 12:22:51;;;;;;;11.85;2.42;;;;;;;;;;4958103;28;20074;-68
2022/02/17 12:25:29;;;;;;;9.13;2.97;;;;;;;;;;4957587;28;20088;-65
2022/02/17 12:27:59;;;;;;;13.02;3.35;;;;;;;;;;4957018;29;20058;-68
2022/02/17 12:30:39;;;;;;;11.70;2.72;;;;;;;;;;4957787;28;20051;-67
2022/02/17 12:33:24;;;;;;;9.13;1.65;;;;;;;;;;4957425;28;20470;-69
2022/02/17 12:36:00;;;;;;;11.82;2.10;;;;;;;;;;4957577;28;20051;-70
2022/02/17 12:38:27;;;;;;;12.23;2.10;;;;;;;;;;4957534;28;20606;-69
2022/02/17 12:40:59;;;;;;;11.32;1.88;;;;;;;;;;4955699;28;20047;-68
2022/02/17 12:43:37;;;;;;;7.95;1.50;;;;;;;;;;4956667;29;20054;-70
2022/02/17 12:46:06;;;;;;;14.45;2.25;;;;;;;;;;4954553;28;20126;-68
2022/02/17 12:48:34;;;;;;;10.85;2.70;;;;;;;;;;4957681;28;20078;-67
2022/02/17 12:51:32;;;;;;;8.90;1.75;;;;;;;;;;4957333;28;20524;-68
2022/02/17 12:54:08;;;;;;;9.30;2.08;;;;;;;;;;4956953;29;20102;-66
2022/02/17 12:56:36;;;;;;;7.82;2.38;;;;;;;;;;4957026;29;20514;-66
2022/02/17 12:59:17;;;;;;;12.77;2.45;;;;;;;;;;4957283;28;20051;-67
2022/02/17 13:01:50;;;;;;;10.38;2.13;;;;;;;;;;4956400;28;20482;-67
2022/02/17 13:04:17;;;;;;;13.90;2.92;;;;;;;;;;4957144;28;20130;-66
2022/02/17 13:06:44;;;;;;;8.98;2.45;;;;;;;;;;4954998;28;20055;-70
2022/02/17 13:09:23;;;;;;;10.38;2.25;;;;;;;;;;4954621;29;20507;-69
2022/02/17 13:11:52;;;;;;;13.25;3.10;;;;;;;;;;4953650;29;20491;-69
2022/02/17 13:14:30;;;;;;;16.13;2.95;;;;;;;;;;4953584;28;20060;-69
2022/02/17 13:16:58;;;;;;;19.38;3.50;;;;;;;;;;4954236;29;20053;-69
2022/02/17 13:19:37;;;;;;;13.45;3.28;;;;;;;;;;4952765;29;20051;-69
2022/02/17 13:22:21;;;;;;;15.60;2.88;;;;;;;;;;4953397;29;20150;-66
2022/02/17 13:25:03;;;;;;;15.18;2.88;;;;;;;;;;4953562;28;20086;-70
2022/02/17 13:27:35;;;;;;;10.98;3.20;;;;;;;;;;4952906;28;20142;-70
2022/02/17 13:30:07;;;;;;;19.73;4.30;;;;;;;;;;4952814;29;20047;-71
2022/02/17 13:32:41;;;;;;;18.33;2.88;;;;;;;;;;4952125;29;20797;-70
2022/02/17 13:35:13;;;;;;;17.27;3.72;;;;;;;;;;4951371;29;20050;-68
2022/02/17 13:37:41;;;;;;;18.23;3.17;;;;;;;;;;4953828;29;20074;-71
2022/02/17 13:40:11;;;;;;;23.33;3.70;;;;;;;;;;4950228;29;20086;-71
2022/02/17 13:42:39;;;;;;;13.27;3.63;;;;;;;;;;4952503;29;20109;-71
2022/02/17 13:45:22;;;;;;;20.80;3.67;;;;;;;;;;4953688;28;20051;-71
2022/02/17 13:47:50;;;;;;;19.27;2.88;;;;;;;;;;4952783;29;20395;-72
2022/02/17 13:50:27;;;;;;;14.32;3.15;;;;;;;;;;4945351;29;20126;-69
2022/02/17 13:53:02;;;;;;;13.32;3.05;;;;;;;;;;4936028;29;20146;-68
2022/02/17 13:55:30;;;;;;;14.48;2.58;;;;;;;;;;4952310;29;20634;-67
2022/02/17 13:57:58;;;;;;;14.00;3.33;;;;;;;;;;4953854;29;20103;-67
2022/02/17 14:00:35;;;;;;;15.13;3.17;;;;;;;;;;4953253;29;20051;-68
2022/02/17 14:03:21;;;;;;;15.77;3.03;;;;;;;;;;4952640;29;20047;-70
2022/02/17 14:05:48;;;;;;;12.05;3.10;;;;;;;;;;4953104;28;20074;-68
2022/02/17 14:08:15;;;;;;;12.30;2.67;;;;;;;;;;4952922;29;20051;-69
2022/02/17 14:10:41;;;;;;;15.05;2.88;;;;;;;;;;4952749;29;20047;-68
2022/02/17 14:13:08;;;;;;;11.13;2.90;;;;;;;;;;4952580;29;20051;-69
2022/02/17 14:15:35;;;;;;;15.20;3.00;;;;;;;;;;4953035;28;20106;-64
2022/02/17 14:18:01;;;;;;;8.68;2.47;;;;;;;;;;4953242;28;20121;-67
2022/02/17 14:20:28;;;;;;;10.23;1.95;;;;;;;;;;4953396;29;20388;-67
2022/02/17 14:22:55;;;;;;;12.82;2.78;;;;;;;;;;4953433;29;20051;-66
2022/02/17 14:25:25;;;;;;;15.77;2.15;;;;;;;;;;4953611;28;20059;-67
2022/02/17 14:27:52;;;;;;;10.57;2.38;;;;;;;;;;4953560;29;20052;-67
2022/02/17 14:30:18;;;;;;;13.95;3.38;;;;;;;;;;4953951;29;20458;-66
2022/02/17 14:32:45;;;;;;;15.63;2.15;;;;;;;;;;4952658;29;20110;-66
2022/02/17 14:35:12;;;;;;;10.30;2.40;;;;;;;;;;4953613;28;20059;-67
2022/02/17 14:37:44;;;;;;;8.13;2.38;;;;;;;;;;4953371;29;20513;-67
2022/02/17 14:40:14;;;;;;;14.15;2.00;;;;;;;;;;4953421;29;20047;-67
2022/02/17 14:42:42;;;;;;;10.23;2.58;;;;;;;;;;4953031;29;20055;-68
2022/02/17 14:45:09;;;;;;;13.05;2.70;;;;;;;;;;4952843;28;20106;-66
2022/02/17 14:47:37;;;;;;;11.65;2.83;;;;;;;;;;4953172;29;20110;-66
2022/02/17 14:50:07;;;;;;;14.55;2.70;;;;;;;;;;4953143;29;20047;-66